createdAt,value
2023-04-11T00:01:15.985Z,12.20
2023-04-11T00:03:45.521Z,14.17
2023-04-11T00:06:16.921Z,12.00
2023-04-11T00:08:48.054Z,10.83
2023-04-11T00:11:18.109Z,11.47
2023-04-11T00:13:47.805Z,10.13
2023-04-11T00:16:17.172Z,11.70
2023-04-11T00:18:48.053Z,17.80
2023-04-11T00:21:19.090Z,11.33
2023-04-11T00:23:49.454Z,12.80
2023-04-11T00:26:18.576Z,9.93
2023-04-11T00:28:47.911Z,12.80
2023-04-11T00:31:18.879Z,11.90
2023-04-11T00:33:48.959Z,10.00
2023-04-11T00:36:20.277Z,11.17
2023-04-11T00:38:49.718Z,17.00
2023-04-11T00:41:19.171Z,14.40
2023-04-11T00:43:50.731Z,17.53
2023-04-11T00:46:20.782Z,18.57
2023-04-11T00:48:50.801Z,22.53
2023-04-11T00:51:22.158Z,16.50
2023-04-11T00:53:52.197Z,25.60
2023-04-11T00:56:23.124Z,27.73
2023-04-11T00:58:53.439Z,23.33
2023-04-11T01:01:25.255Z,23.10
2023-04-11T01:03:56.001Z,21.87
2023-04-11T01:06:27.714Z,23.60
2023-04-11T01:08:57.713Z,17.90
2023-04-11T01:11:27.362Z,18.73
2023-04-11T01:13:57.466Z,27.13
2023-04-11T01:16:26.886Z,26.03
2023-04-11T01:18:56.942Z,20.47
2023-04-11T01:21:28.679Z,18.30
2023-04-11T01:24:03.806Z,19.17
2023-04-11T01:26:33.855Z,23.33
2023-04-11T01:29:04.092Z,23.20
2023-04-11T01:31:34.128Z,17.77
2023-04-11T01:34:04.179Z,17.37
2023-04-11T01:36:34.081Z,18.00
2023-04-11T01:39:04.972Z,19.93
2023-04-11T01:41:36.144Z,25.70
2023-04-11T01:44:07.867Z,19.57
2023-04-11T01:46:38.246Z,22.80
2023-04-11T01:49:09.022Z,20.23
2023-04-11T01:51:38.484Z,25.60
2023-04-11T01:54:10.193Z,19.93
2023-04-11T01:56:40.556Z,18.53
2023-04-11T01:59:09.635Z,16.60
2023-04-11T02:01:46.831Z,21.57
2023-04-11T02:04:16.128Z,20.30
2023-04-11T02:06:46.151Z,15.97
2023-04-11T02:09:17.855Z,14.57
2023-04-11T02:11:47.253Z,17.73
2023-04-11T02:14:16.508Z,18.17
2023-04-11T02:16:53.836Z,16.30
2023-04-11T02:19:23.542Z,19.60
2023-04-11T02:21:55.131Z,16.67
2023-04-11T02:24:27.074Z,17.10
2023-04-11T02:26:57.000Z,18.77
2023-04-11T02:29:27.973Z,13.03
2023-04-11T02:31:59.084Z,13.37
2023-04-11T02:34:29.227Z,10.77
2023-04-11T02:36:58.719Z,10.77
2023-04-11T02:39:31.521Z,8.63
2023-04-11T02:42:01.103Z,14.13
2023-04-11T02:44:31.029Z,15.10
2023-04-11T02:47:02.923Z,11.40
2023-04-11T02:49:32.365Z,16.70
2023-04-11T02:52:02.283Z,11.07
2023-04-11T02:54:33.862Z,15.53
2023-04-11T02:57:04.514Z,12.50
2023-04-11T02:59:33.997Z,14.83
2023-04-11T03:02:04.925Z,16.17
2023-04-11T03:04:34.480Z,16.07
2023-04-11T03:07:13.973Z,14.77
2023-04-11T03:09:45.632Z,15.20
2023-04-11T03:12:15.213Z,15.90
2023-04-11T03:14:54.569Z,18.80
2023-04-11T03:17:25.319Z,14.37
2023-04-11T03:19:54.463Z,10.50
2023-04-11T03:22:26.492Z,11.93
2023-04-11T03:24:57.320Z,16.07
2023-04-11T03:27:27.432Z,15.10
2023-04-11T03:30:01.178Z,10.63
2023-04-11T03:32:43.029Z,14.83
2023-04-11T03:35:12.439Z,17.10
2023-04-11T03:37:46.299Z,15.30
2023-04-11T03:40:18.805Z,14.30
2023-04-11T03:42:55.378Z,11.20
2023-04-11T03:45:29.169Z,16.27
2023-04-11T03:48:02.015Z,11.10
2023-04-11T03:50:45.411Z,14.20
2023-04-11T03:53:17.740Z,19.20
2023-04-11T03:55:50.331Z,13.80
2023-04-11T03:58:22.000Z,14.47
2023-04-11T04:00:52.272Z,16.93
2023-04-11T04:03:21.863Z,19.33
2023-04-11T04:05:52.928Z,23.27
2023-04-11T04:08:24.387Z,18.90
2023-04-11T04:10:55.901Z,17.57
2023-04-11T04:13:25.655Z,21.37
2023-04-11T04:16:04.457Z,17.67
2023-04-11T04:18:34.899Z,15.30
2023-04-11T04:21:04.224Z,19.03
2023-04-11T04:23:34.618Z,15.50
2023-04-11T04:26:26.227Z,26.60
2023-04-11T04:29:07.406Z,13.80
2023-04-11T04:31:53.282Z,14.20
2023-04-11T04:34:32.539Z,12.13
2023-04-11T04:37:02.665Z,15.60
2023-04-11T04:39:44.229Z,14.43
2023-04-11T04:42:21.471Z,15.13
2023-04-11T04:44:52.363Z,15.10
2023-04-11T04:47:22.111Z,14.50
2023-04-11T04:49:51.892Z,14.13
2023-04-11T04:52:21.816Z,15.00
2023-04-11T04:54:51.129Z,15.93
2023-04-11T04:57:21.765Z,14.60
2023-04-11T04:59:52.198Z,24.00
2023-04-11T05:02:21.807Z,20.80
2023-04-11T05:04:54.177Z,20.77
2023-04-11T05:07:25.414Z,19.00
2023-04-11T05:09:54.724Z,23.63
2023-04-11T05:12:29.010Z,21.70
2023-04-11T05:15:11.579Z,20.00
2023-04-11T05:17:43.708Z,23.63
2023-04-11T05:20:15.527Z,20.53
2023-04-11T05:22:49.859Z,31.10
2023-04-11T05:25:20.979Z,17.60
2023-04-11T05:27:54.642Z,25.53
2023-04-11T05:30:26.942Z,28.33
2023-04-11T05:32:57.250Z,23.13
2023-04-11T05:35:27.666Z,23.00
2023-04-11T05:37:59.162Z,20.90
2023-04-11T05:40:29.145Z,28.00
2023-04-11T05:43:00.437Z,19.27
2023-04-11T05:45:30.737Z,16.17
2023-04-11T05:48:00.057Z,23.77
2023-04-11T05:50:30.576Z,22.03
2023-04-11T05:52:59.741Z,21.47
2023-04-11T05:55:29.170Z,21.47
2023-04-11T05:58:00.205Z,18.97
2023-04-11T06:00:31.236Z,26.97
2023-04-11T06:03:03.692Z,24.07
2023-04-11T06:05:34.966Z,19.90
2023-04-11T06:08:05.637Z,28.20
2023-04-11T06:10:34.897Z,18.80
2023-04-11T06:13:12.831Z,19.60
2023-04-11T06:15:42.780Z,21.07
2023-04-11T06:18:13.088Z,15.87
2023-04-11T06:20:43.308Z,28.93
2023-04-11T06:23:12.322Z,16.70
2023-04-11T06:25:42.366Z,16.10
2023-04-11T06:28:14.067Z,20.57
2023-04-11T06:30:43.838Z,14.40
2023-04-11T06:33:13.004Z,19.53
2023-04-11T06:35:43.622Z,19.37
2023-04-11T06:38:12.785Z,20.97
2023-04-11T06:40:42.731Z,119.53
2023-04-11T06:43:13.871Z,27.70
2023-04-11T06:45:44.168Z,31.97
2023-04-11T06:48:13.273Z,27.20
2023-04-11T06:50:43.168Z,30.97
2023-04-11T06:53:12.245Z,32.17
2023-04-11T06:55:42.434Z,20.97
2023-04-11T06:58:12.232Z,33.37
2023-04-11T07:00:43.288Z,27.47
2023-04-11T07:03:14.303Z,31.17
2023-04-11T07:05:44.101Z,26.80
2023-04-11T07:08:14.721Z,29.47
2023-04-11T07:10:43.813Z,30.30
2023-04-11T07:13:15.050Z,25.33
2023-04-11T07:15:46.154Z,27.60
2023-04-11T07:18:15.930Z,29.13
2023-04-11T07:20:45.013Z,27.93
2023-04-11T07:23:15.272Z,34.20
2023-04-11T07:25:45.947Z,37.60
2023-04-11T07:28:15.657Z,33.67
2023-04-11T07:30:46.995Z,47.60
2023-04-11T07:33:17.021Z,37.20
2023-04-11T07:35:46.151Z,34.83
2023-04-11T07:38:16.035Z,35.10
2023-04-11T07:40:45.452Z,33.27
2023-04-11T07:43:14.922Z,46.63
2023-04-11T07:45:44.862Z,33.57
2023-04-11T07:48:16.440Z,47.07
2023-04-11T07:50:46.477Z,26.23
2023-04-11T07:53:15.657Z,31.77
2023-04-11T07:55:45.070Z,29.43
2023-04-11T07:58:14.414Z,31.10
2023-04-11T08:00:43.914Z,42.83
2023-04-11T08:03:13.865Z,35.87
2023-04-11T08:05:45.099Z,38.80
2023-04-11T08:08:15.052Z,29.50
2023-04-11T08:10:46.231Z,33.23
2023-04-11T08:13:15.888Z,31.67
2023-04-11T08:15:45.033Z,36.50
2023-04-11T08:18:16.718Z,25.40
2023-04-11T08:20:47.546Z,37.90
2023-04-11T08:23:16.684Z,31.70
2023-04-11T08:25:46.433Z,30.30
2023-04-11T08:28:15.646Z,26.17
2023-04-11T08:30:45.623Z,23.30
2023-04-11T08:33:15.571Z,24.10
2023-04-11T08:35:44.955Z,38.10
2023-04-11T08:38:15.670Z,27.93
2023-04-11T08:40:46.231Z,19.87
2023-04-11T08:43:15.505Z,17.83
2023-04-11T08:45:45.287Z,26.13
2023-04-11T08:48:15.370Z,10.33
2023-04-11T08:50:46.666Z,9.90
2023-04-11T08:53:18.389Z,17.57
2023-04-11T08:55:48.347Z,14.83
2023-04-11T08:58:17.673Z,14.30
2023-04-11T09:00:47.700Z,19.77
2023-04-11T09:03:18.745Z,18.27
2023-04-11T09:05:48.954Z,22.17
2023-04-11T09:08:20.956Z,14.63
2023-04-11T09:10:50.309Z,21.07
2023-04-11T09:13:22.080Z,15.90
2023-04-11T09:16:05.528Z,26.50
2023-04-11T09:18:36.148Z,16.10
2023-04-11T09:21:07.632Z,25.67
2023-04-11T09:23:38.779Z,20.83
2023-04-11T09:26:09.334Z,20.77
2023-04-11T09:28:43.575Z,56.67
2023-04-11T09:31:13.782Z,26.00
2023-04-11T09:33:55.443Z,34.53
2023-04-11T09:36:28.751Z,39.00
2023-04-11T09:38:59.855Z,33.83
2023-04-11T09:41:32.702Z,37.17
2023-04-11T09:44:02.700Z,31.20
2023-04-11T09:46:31.872Z,36.30
2023-04-11T09:49:02.645Z,37.00
2023-04-11T09:51:36.983Z,36.30
2023-04-11T09:54:08.519Z,31.50
2023-04-11T09:56:39.187Z,32.93
2023-04-11T09:59:09.677Z,32.90
2023-04-11T10:01:39.644Z,33.53
2023-04-11T10:04:11.375Z,29.23
2023-04-11T10:06:44.199Z,27.90
2023-04-11T10:09:17.248Z,30.03
2023-04-11T10:11:46.939Z,28.83
2023-04-11T10:14:36.474Z,29.67
2023-04-11T10:17:23.059Z,31.70
2023-04-11T10:19:58.312Z,26.63
2023-04-11T10:23:00.637Z,27.50
2023-04-11T10:25:31.665Z,26.23
2023-04-11T10:28:04.179Z,25.50
2023-04-11T10:30:52.397Z,28.93
2023-04-11T10:33:21.756Z,26.10
2023-04-11T10:36:05.729Z,22.03
2023-04-11T10:38:51.517Z,34.53
2023-04-11T10:41:32.946Z,19.87
2023-04-11T10:44:21.028Z,23.67
2023-04-11T10:46:56.091Z,24.50
2023-04-11T10:52:20.906Z,20.90
2023-04-11T10:54:50.865Z,25.13
2023-04-11T10:57:22.066Z,19.63
2023-04-11T11:00:15.862Z,21.70
2023-04-11T11:02:46.810Z,21.90
2023-04-11T11:05:20.597Z,25.40
2023-04-11T11:07:52.071Z,19.97
2023-04-11T11:10:37.586Z,20.90
2023-04-11T11:13:10.018Z,19.90
2023-04-11T11:15:39.976Z,19.00
2023-04-11T11:18:10.956Z,21.03
2023-04-11T11:20:41.242Z,17.10
2023-04-11T11:23:11.833Z,15.17
2023-04-11T11:25:41.321Z,21.70
2023-04-11T11:28:11.805Z,18.40
2023-04-11T11:30:54.098Z,17.20
2023-04-11T11:33:26.822Z,15.70
2023-04-11T11:35:57.547Z,17.77
2023-04-11T11:38:27.979Z,13.97
2023-04-11T11:40:58.202Z,26.37
2023-04-11T11:43:29.757Z,13.07
2023-04-11T11:46:09.461Z,15.20
2023-04-11T11:48:39.285Z,18.43
2023-04-11T11:51:08.494Z,19.77
2023-04-11T11:53:38.643Z,23.63
2023-04-11T11:56:14.945Z,16.10
2023-04-11T11:58:46.249Z,20.90
2023-04-11T12:01:17.827Z,14.07
2023-04-11T12:03:51.767Z,25.73
2023-04-11T12:06:21.413Z,16.00
2023-04-11T12:08:54.706Z,16.93
2023-04-11T12:11:25.393Z,14.33
2023-04-11T12:13:57.231Z,13.50
2023-04-11T12:16:27.715Z,15.27
2023-04-11T12:19:00.681Z,14.03
2023-04-11T12:21:30.741Z,14.20
2023-04-11T12:23:59.840Z,17.73
2023-04-11T12:26:29.344Z,11.70
2023-04-11T12:29:02.225Z,11.57
2023-04-11T12:31:32.064Z,13.23
2023-04-11T12:34:01.475Z,16.20
2023-04-11T12:39:05.973Z,16.97
2023-04-11T12:41:35.039Z,11.77
2023-04-11T12:44:06.786Z,13.60
2023-04-11T12:46:36.411Z,15.40
2023-04-11T12:49:05.803Z,15.57
2023-04-11T12:51:36.119Z,11.77
2023-04-11T12:54:05.220Z,9.37
2023-04-11T12:56:34.855Z,9.20
2023-04-11T12:59:04.520Z,10.40
2023-04-11T13:01:35.365Z,7.70
2023-04-11T13:04:04.782Z,12.73
2023-04-11T13:06:34.451Z,11.13
2023-04-11T13:09:05.923Z,12.27
2023-04-11T13:11:36.913Z,7.63
2023-04-11T13:14:06.004Z,7.40
2023-04-11T13:16:37.704Z,10.13
2023-04-11T13:19:08.597Z,11.27
2023-04-11T13:21:38.568Z,13.27
2023-04-11T13:24:08.360Z,9.03
2023-04-11T13:26:37.764Z,11.13
2023-04-11T13:29:07.737Z,10.47
2023-04-11T13:31:38.299Z,18.20
2023-04-11T13:34:09.487Z,9.83
2023-04-11T13:36:38.567Z,11.53
2023-04-11T13:39:08.182Z,8.37
2023-04-11T13:41:38.014Z,8.70
2023-04-11T13:44:07.888Z,11.43
2023-04-11T13:46:39.297Z,12.17
2023-04-11T13:49:08.909Z,6.77
2023-04-11T13:51:37.951Z,10.00
2023-04-11T13:54:07.748Z,9.30
2023-04-11T13:56:38.025Z,17.73
2023-04-11T13:59:09.253Z,9.40
2023-04-11T14:01:39.917Z,8.47
2023-04-11T14:04:10.167Z,9.07
2023-04-11T14:06:39.466Z,12.93
2023-04-11T14:09:08.935Z,13.67
2023-04-11T14:11:38.017Z,7.40
2023-04-11T14:14:08.932Z,7.43
2023-04-11T14:16:39.911Z,6.13
2023-04-11T14:19:10.971Z,7.00
2023-04-11T14:21:40.963Z,8.33
2023-04-11T14:24:10.875Z,5.30
2023-04-11T14:26:40.455Z,6.27
2023-04-11T14:29:09.499Z,7.17
2023-04-11T14:31:41.490Z,9.60
2023-04-11T14:34:11.714Z,8.23
2023-04-11T14:36:40.947Z,5.73
2023-04-11T14:39:11.140Z,12.17
2023-04-11T14:41:40.144Z,13.77
2023-04-11T14:44:10.077Z,4.03
2023-04-11T14:46:41.946Z,6.03
2023-04-11T14:49:11.689Z,5.97
2023-04-11T14:51:40.767Z,8.97
2023-04-11T14:54:10.354Z,3.50
2023-04-11T14:56:39.489Z,10.33
2023-04-11T14:59:11.709Z,7.10
2023-04-11T15:01:42.464Z,5.20
2023-04-11T15:04:11.697Z,5.93
2023-04-11T15:06:41.951Z,5.83
2023-04-11T15:09:11.224Z,6.07
2023-04-11T15:11:40.517Z,8.87
2023-04-11T15:14:10.079Z,10.33
2023-04-11T15:16:39.469Z,6.40
2023-04-11T15:19:10.095Z,7.03
2023-04-11T15:21:40.831Z,8.07
2023-04-11T15:24:10.494Z,4.70
2023-04-11T15:26:40.002Z,7.60
2023-04-11T15:29:14.409Z,9.37
2023-04-11T15:31:44.946Z,4.47
2023-04-11T15:34:16.399Z,7.73
2023-04-11T15:36:45.889Z,5.93
2023-04-11T15:39:14.999Z,7.10
2023-04-11T15:41:45.331Z,6.83
2023-04-11T15:44:14.471Z,9.23
2023-04-11T15:46:48.154Z,7.70
2023-04-11T15:49:20.160Z,12.03
2023-04-11T15:51:50.902Z,7.13
2023-04-11T15:54:19.984Z,5.07
2023-04-11T15:56:50.538Z,8.80
2023-04-11T15:59:20.698Z,4.47
2023-04-11T16:01:50.433Z,4.50
2023-04-11T16:04:21.318Z,9.40
2023-04-11T16:06:51.447Z,8.60
2023-04-11T16:09:20.734Z,4.50
2023-04-11T16:11:50.678Z,9.37
2023-04-11T16:14:20.392Z,11.83
2023-04-11T16:16:49.826Z,5.50
2023-04-11T16:19:18.922Z,8.97
2023-04-11T16:21:50.602Z,6.93
2023-04-11T16:24:20.249Z,5.63
2023-04-11T16:26:50.355Z,6.17
2023-04-11T16:29:20.836Z,6.77
2023-04-11T16:31:49.939Z,4.97
2023-04-11T16:34:20.079Z,11.60
2023-04-11T16:36:52.140Z,15.17
2023-04-11T16:39:22.140Z,8.07
2023-04-11T16:41:51.344Z,16.50
2023-04-11T16:44:21.982Z,4.20
2023-04-11T16:46:53.050Z,11.83
2023-04-11T16:49:23.169Z,6.63
2023-04-11T16:51:53.981Z,7.13
2023-04-11T16:54:24.782Z,7.03
2023-04-11T16:56:53.894Z,10.33
2023-04-11T16:59:24.017Z,3.37
2023-04-11T17:01:53.458Z,11.40
2023-04-11T17:04:23.203Z,5.73
2023-04-11T17:06:55.798Z,5.70
2023-04-11T17:09:25.538Z,9.73
2023-04-11T17:11:54.930Z,5.70
2023-04-11T17:14:24.832Z,4.60
2023-04-11T17:16:54.302Z,5.90
2023-04-11T17:19:25.596Z,3.43
2023-04-11T17:21:58.505Z,6.47
2023-04-11T17:24:28.361Z,4.40
2023-04-11T17:26:58.221Z,5.80
2023-04-11T17:29:29.573Z,11.23
2023-04-11T17:31:58.582Z,5.50
2023-04-11T17:34:28.031Z,11.53
2023-04-11T17:37:00.304Z,7.77
2023-04-11T17:39:29.916Z,4.80
2023-04-11T17:41:59.026Z,6.97
2023-04-11T17:44:28.659Z,4.60
2023-04-11T17:46:57.845Z,9.90
2023-04-11T17:49:28.226Z,4.67
2023-04-11T17:51:59.638Z,7.20
2023-04-11T17:54:31.548Z,4.67
2023-04-11T17:57:02.340Z,7.90
2023-04-11T17:59:31.872Z,5.40
2023-04-11T18:02:01.377Z,8.27
2023-04-11T18:04:31.093Z,5.60
2023-04-11T18:07:00.189Z,6.47
2023-04-11T18:09:32.321Z,3.97
2023-04-11T18:12:02.634Z,8.23
2023-04-11T18:14:33.336Z,3.43
2023-04-11T18:17:03.455Z,9.20
2023-04-11T18:19:33.022Z,7.83
2023-04-11T18:22:03.897Z,4.80
2023-04-11T18:24:34.737Z,7.03
2023-04-11T18:27:05.431Z,5.30
2023-04-11T18:29:34.437Z,7.13
2023-04-11T18:32:05.019Z,8.60
2023-04-11T18:34:34.402Z,16.90
2023-04-11T18:37:04.002Z,15.03
2023-04-11T18:39:34.960Z,7.20
2023-04-11T18:42:06.390Z,5.70
2023-04-11T18:44:36.597Z,6.70
2023-04-11T18:47:06.840Z,10.30
2023-04-11T18:49:38.546Z,7.93
2023-04-11T18:52:07.787Z,12.13
2023-04-11T18:54:38.830Z,8.40
2023-04-11T18:57:10.175Z,5.30
2023-04-11T18:59:43.364Z,8.93
2023-04-11T19:02:14.538Z,4.90
2023-04-11T19:04:46.172Z,7.00
2023-04-11T19:07:16.056Z,8.97
2023-04-11T19:09:47.280Z,9.73
2023-04-11T19:12:17.311Z,18.33
2023-04-11T19:14:46.595Z,10.00
2023-04-11T19:17:16.195Z,8.80
2023-04-11T19:19:45.356Z,8.07
2023-04-11T19:22:15.070Z,10.93
2023-04-11T19:24:44.619Z,14.53
2023-04-11T19:27:18.378Z,9.93
2023-04-11T19:29:49.977Z,11.50
2023-04-11T19:32:21.721Z,11.87
2023-04-11T19:34:51.844Z,12.43
2023-04-11T19:37:22.790Z,8.40
2023-04-11T19:39:51.931Z,14.63
2023-04-11T19:42:26.097Z,21.97
2023-04-11T19:44:56.871Z,20.20
2023-04-11T19:47:26.248Z,15.03
2023-04-11T19:49:57.115Z,16.47
2023-04-11T19:52:26.572Z,11.70
2023-04-11T19:54:55.814Z,10.73
2023-04-11T19:57:29.922Z,12.60
2023-04-11T19:59:59.289Z,18.73
2023-04-11T20:02:28.451Z,15.87
2023-04-11T20:04:59.448Z,10.50
2023-04-11T20:07:29.032Z,9.70
2023-04-11T20:09:58.596Z,8.97
2023-04-11T20:12:29.227Z,16.93
2023-04-11T20:14:58.978Z,15.90
2023-04-11T20:17:28.051Z,10.23
2023-04-11T20:19:58.953Z,14.57
2023-04-11T20:22:28.411Z,18.90
2023-04-11T20:24:57.609Z,12.13
2023-04-11T20:27:30.304Z,11.57
2023-04-11T20:30:00.811Z,11.13
2023-04-11T20:32:30.003Z,13.50
2023-04-11T20:35:02.282Z,17.13
2023-04-11T20:37:34.614Z,14.07
2023-04-11T20:40:07.557Z,15.70
2023-04-11T20:42:42.567Z,12.10
2023-04-11T20:45:14.366Z,14.63
2023-04-11T20:47:46.248Z,9.43
2023-04-11T20:50:17.325Z,11.07
2023-04-11T20:52:47.134Z,9.50
2023-04-11T20:55:17.200Z,18.13
2023-04-11T20:57:48.455Z,12.20
2023-04-11T21:00:19.033Z,17.83
2023-04-11T21:02:50.641Z,11.80
2023-04-11T21:05:22.429Z,13.00
2023-04-11T21:07:55.057Z,14.27
2023-04-11T21:10:24.883Z,15.47
2023-04-11T21:12:55.591Z,13.80
2023-04-11T21:15:25.579Z,15.40
2023-04-11T21:17:54.648Z,19.53
2023-04-11T21:20:25.020Z,12.60
2023-04-11T21:22:54.925Z,12.90
2023-04-11T21:25:25.686Z,10.93
2023-04-11T21:27:56.320Z,15.27
2023-04-11T21:30:26.893Z,18.17
2023-04-11T21:32:56.031Z,19.20
2023-04-11T21:35:27.176Z,12.20
2023-04-11T21:37:56.848Z,22.30
2023-04-11T21:40:26.252Z,22.90
2023-04-11T21:42:58.585Z,11.10
2023-04-11T21:45:28.684Z,7.10
2023-04-11T21:47:57.855Z,8.80
2023-04-11T21:50:28.513Z,9.97
2023-04-11T21:52:57.547Z,6.77
2023-04-11T21:55:27.611Z,9.77
2023-04-11T21:57:58.514Z,22.30
2023-04-11T22:00:28.178Z,21.13
2023-04-11T22:02:58.746Z,8.40
2023-04-11T22:05:28.649Z,9.47
2023-04-11T22:08:12.280Z,6.93
2023-04-11T22:10:47.721Z,12.40
2023-04-11T22:13:21.144Z,9.43
2023-04-11T22:15:58.542Z,10.33
2023-04-11T22:18:28.920Z,9.70
2023-04-11T22:20:57.962Z,13.17
2023-04-11T22:23:27.919Z,8.33
2023-04-11T22:26:00.192Z,12.33
2023-04-11T22:28:31.690Z,8.77
2023-04-11T22:31:01.671Z,10.00
2023-04-11T22:33:31.734Z,8.53
2023-04-11T22:36:03.204Z,6.23
2023-04-11T22:38:33.605Z,6.23
2023-04-11T22:41:02.924Z,11.53
2023-04-11T22:43:34.666Z,12.43
2023-04-11T22:46:04.124Z,10.13
2023-04-11T22:48:33.298Z,10.17
2023-04-11T22:51:04.473Z,15.17
2023-04-11T22:53:33.726Z,6.73
2023-04-11T22:56:04.365Z,6.43
2023-04-11T22:58:35.111Z,12.20
2023-04-11T23:01:15.785Z,13.27
2023-04-11T23:03:45.132Z,7.33
2023-04-11T23:06:14.803Z,9.53
2023-04-11T23:08:43.854Z,9.00
2023-04-11T23:11:13.337Z,10.30
2023-04-11T23:13:43.800Z,9.60
2023-04-11T23:16:15.221Z,8.93
2023-04-11T23:18:45.093Z,11.53
2023-04-11T23:21:14.685Z,8.30
2023-04-11T23:23:44.872Z,8.57
2023-04-11T23:26:20.754Z,8.77
2023-04-11T23:28:52.827Z,8.90
2023-04-11T23:31:22.687Z,9.30
2023-04-11T23:33:52.895Z,12.53
2023-04-11T23:36:24.041Z,7.37
2023-04-11T23:38:53.544Z,12.53
2023-04-11T23:41:22.694Z,13.07
2023-04-11T23:43:54.655Z,13.83
2023-04-11T23:46:24.541Z,10.47
2023-04-11T23:48:54.694Z,11.13
2023-04-11T23:51:25.326Z,13.10
2023-04-11T23:53:54.408Z,9.27
2023-04-11T23:56:24.296Z,8.30
2023-04-11T23:58:55.527Z,12.23
